74NY weather

New Salem Aerodrome
Farmington, New York, United States

Public forecast

Using degrees Fahrenheit for public forecast. Weather courtesy of forecast.io.

Closest aviation weather report (METAR) to New Salem Aerodrome

Closest report is Greater Rochester International Airport, 18.0 nm (33.4 km) WNW. Retrieved 2019/10/22 08:54 UTC (46 minutes ago):

KROC 220854Z 18015G22KT 10SM OVC110 17/09 A2982 RMK AO2 SLP100 T01670089 58004

Closest aviation forecast (TAF) to New Salem Aerodrome

Closest forecast is Greater Rochester International Airport, 18.0 nm (33.4 km) WNW. Retrieved 2019/10/22 06:42 UTC (3 hours ago):

TAF KROC 220541Z 2206/2306 16015G23KT P6SM OVC150 WS015/17045KT FM220800 17014G21KT P6SM OVC090 WS015/19045KT FM221200 17012G20KT P6SM OVC060 FM221400 17013G20KT 6SM -SHRA BR OVC040 FM221600 17011G17KT 4SM RA OVC020 FM221900 18008KT 5SM RA OVC050 FM222100 19009KT P6SM VCSH OVC070